createdAt,value
2018-05-31T00:01:08.168Z,18.30
2018-05-31T00:03:34.123Z,18.29
2018-05-31T00:06:00.562Z,18.24
2018-05-31T00:08:26.620Z,18.24
2018-05-31T00:10:52.610Z,18.20
2018-05-31T00:13:18.495Z,18.22
2018-05-31T00:15:44.404Z,18.19
2018-05-31T00:18:10.381Z,18.13
2018-05-31T00:20:36.469Z,18.14
2018-05-31T00:23:02.360Z,18.13
2018-05-31T00:25:29.271Z,18.17
2018-05-31T00:27:55.205Z,18.15
2018-05-31T00:30:21.088Z,18.17
2018-05-31T00:32:47.171Z,18.12
2018-05-31T00:35:13.052Z,18.10
2018-05-31T00:37:38.942Z,18.03
2018-05-31T00:40:04.912Z,18.03
2018-05-31T00:42:30.855Z,17.96
2018-05-31T00:44:56.879Z,17.94
2018-05-31T00:47:23.240Z,17.90
2018-05-31T00:49:49.166Z,17.90
2018-05-31T00:52:15.313Z,17.88
2018-05-31T00:54:41.903Z,17.87
2018-05-31T00:57:07.937Z,17.84
2018-05-31T00:59:33.849Z,17.85
2018-05-31T01:01:59.808Z,17.82
2018-05-31T01:04:25.700Z,17.80
2018-05-31T01:06:51.590Z,17.78
2018-05-31T01:09:17.754Z,17.71
2018-05-31T01:11:43.673Z,17.77
2018-05-31T01:14:09.571Z,17.77
2018-05-31T01:16:35.703Z,17.75
2018-05-31T01:19:01.591Z,17.71
2018-05-31T01:21:29.334Z,17.71
2018-05-31T01:23:55.570Z,17.69
2018-05-31T01:26:21.498Z,17.67
2018-05-31T01:28:47.419Z,17.67
2018-05-31T01:31:14.218Z,17.66
2018-05-31T01:33:40.261Z,17.63
2018-05-31T01:36:06.168Z,17.62
2018-05-31T01:38:32.116Z,17.57
2018-05-31T01:40:58.033Z,17.57
2018-05-31T01:43:23.934Z,17.52
2018-05-31T01:45:50.030Z,17.54
2018-05-31T01:48:15.919Z,17.52
2018-05-31T01:50:41.840Z,17.48
2018-05-31T01:53:08.119Z,17.43
2018-05-31T01:55:34.068Z,17.38
2018-05-31T01:58:00.117Z,17.35
2018-05-31T02:00:26.071Z,17.33
2018-05-31T02:02:52.006Z,17.31
2018-05-31T02:05:17.919Z,17.27
2018-05-31T02:07:43.872Z,17.26
2018-05-31T02:10:09.899Z,17.26
2018-05-31T02:12:35.841Z,17.25
2018-05-31T02:15:01.995Z,17.19
2018-05-31T02:17:27.905Z,17.17
2018-05-31T02:19:53.832Z,17.15
2018-05-31T02:22:20.627Z,17.16
2018-05-31T02:24:46.537Z,17.12
2018-05-31T02:27:12.472Z,17.12
2018-05-31T02:29:38.424Z,17.10
2018-05-31T02:32:04.369Z,17.08
2018-05-31T02:34:30.447Z,17.09
2018-05-31T02:36:56.384Z,17.05
2018-05-31T02:39:22.309Z,17.06
2018-05-31T02:41:48.195Z,17.04
2018-05-31T02:44:14.162Z,17.03
2018-05-31T02:46:40.200Z,17.05
2018-05-31T02:49:06.104Z,17.02
2018-05-31T02:51:32.365Z,17.04
2018-05-31T02:53:58.321Z,17.05
2018-05-31T02:56:24.277Z,17.06
2018-05-31T02:58:50.359Z,17.08
2018-05-31T03:01:16.309Z,17.07
2018-05-31T03:03:42.202Z,17.05
2018-05-31T03:06:08.145Z,17.02
2018-05-31T03:08:34.081Z,17.02
2018-05-31T03:11:00.127Z,17.03
2018-05-31T03:13:26.060Z,17.04
2018-05-31T03:15:51.968Z,17.04
2018-05-31T03:18:18.977Z,17.05
2018-05-31T03:20:44.911Z,17.10
2018-05-31T03:23:10.929Z,17.10
2018-05-31T03:25:36.982Z,17.15
2018-05-31T03:28:02.927Z,17.16
2018-05-31T03:30:28.831Z,17.21
2018-05-31T03:32:54.740Z,17.21
2018-05-31T03:35:20.824Z,17.24
2018-05-31T03:37:46.699Z,17.29
2018-05-31T03:40:12.667Z,17.31
2018-05-31T03:42:38.619Z,17.35
2018-05-31T03:45:04.542Z,17.38
2018-05-31T03:47:30.649Z,17.39
2018-05-31T03:49:56.581Z,17.42
2018-05-31T03:52:22.491Z,17.45
2018-05-31T03:54:48.379Z,17.48
2018-05-31T03:57:14.308Z,17.49
2018-05-31T03:59:40.311Z,17.52
2018-05-31T04:02:06.253Z,17.58
2018-05-31T04:04:32.203Z,17.56
2018-05-31T04:06:58.118Z,17.65
2018-05-31T04:09:24.016Z,17.70
2018-05-31T04:11:50.126Z,17.68
2018-05-31T04:14:16.024Z,17.73
2018-05-31T04:16:41.916Z,17.74
2018-05-31T04:19:07.878Z,17.71
2018-05-31T04:21:33.797Z,17.83
2018-05-31T04:23:59.834Z,17.89
2018-05-31T04:26:25.787Z,17.96
2018-05-31T04:28:51.672Z,18.01
2018-05-31T04:31:17.587Z,18.13
2018-05-31T04:33:43.610Z,18.17
2018-05-31T04:36:09.624Z,18.24
2018-05-31T04:38:35.546Z,18.28
2018-05-31T04:41:01.513Z,18.32
2018-05-31T04:43:27.408Z,18.35
2018-05-31T04:45:53.311Z,18.45
2018-05-31T04:48:19.378Z,18.57
2018-05-31T04:50:45.318Z,18.69
2018-05-31T04:53:11.210Z,18.78
2018-05-31T04:55:37.181Z,18.90
2018-05-31T04:58:03.092Z,18.95
2018-05-31T05:00:29.137Z,19.04
2018-05-31T05:02:55.429Z,19.15
2018-05-31T05:05:21.308Z,19.21
2018-05-31T05:07:47.231Z,19.32
2018-05-31T05:10:14.009Z,19.45
2018-05-31T05:12:40.108Z,19.55
2018-05-31T05:15:06.005Z,19.68
2018-05-31T05:17:31.964Z,19.76
2018-05-31T05:19:57.846Z,19.91
2018-05-31T05:22:23.741Z,20.04
2018-05-31T05:24:49.820Z,20.21
2018-05-31T05:27:15.721Z,20.31
2018-05-31T05:29:41.595Z,20.46
2018-05-31T05:32:07.543Z,20.56
2018-05-31T05:34:33.456Z,20.72
2018-05-31T05:37:00.088Z,20.83
2018-05-31T05:39:26.068Z,20.96
2018-05-31T05:41:51.976Z,21.04
2018-05-31T05:44:17.897Z,21.16
2018-05-31T05:46:43.831Z,21.25
2018-05-31T05:49:09.862Z,21.33
2018-05-31T05:51:35.743Z,21.48
2018-05-31T05:54:01.705Z,21.60
2018-05-31T05:56:27.642Z,21.65
2018-05-31T05:58:53.589Z,21.68
2018-05-31T06:01:19.689Z,21.83
2018-05-31T06:03:45.593Z,21.91
2018-05-31T06:06:11.472Z,22.08
2018-05-31T06:08:37.499Z,22.25
2018-05-31T06:11:03.463Z,22.36
2018-05-31T06:13:30.156Z,22.46
2018-05-31T06:15:56.103Z,22.62
2018-05-31T06:18:22.024Z,22.76
2018-05-31T06:20:47.933Z,22.82
2018-05-31T06:23:13.935Z,22.98
2018-05-31T06:25:40.024Z,23.06
2018-05-31T06:28:05.911Z,23.17
2018-05-31T06:30:31.863Z,23.33
2018-05-31T06:32:58.309Z,23.45
2018-05-31T06:35:24.209Z,23.59
2018-05-31T06:37:50.287Z,23.65
2018-05-31T06:40:16.163Z,23.89
2018-05-31T06:42:42.061Z,23.88
2018-05-31T06:45:08.149Z,24.07
2018-05-31T06:47:34.088Z,24.05
2018-05-31T06:50:00.141Z,24.28
2018-05-31T06:52:26.099Z,24.29
2018-05-31T06:54:52.026Z,24.44
2018-05-31T06:57:17.936Z,24.62
2018-05-31T06:59:43.869Z,24.78
2018-05-31T07:02:09.925Z,24.83
2018-05-31T07:04:35.787Z,24.90
2018-05-31T07:07:01.717Z,25.01
2018-05-31T07:09:27.597Z,25.17
2018-05-31T07:11:53.499Z,25.30
2018-05-31T07:14:20.344Z,25.37
2018-05-31T07:16:46.275Z,25.56
2018-05-31T07:19:12.143Z,25.57
2018-05-31T07:21:38.096Z,25.62
2018-05-31T07:24:03.987Z,25.60
2018-05-31T07:26:30.098Z,25.79
2018-05-31T07:28:56.043Z,25.91
2018-05-31T07:31:21.944Z,26.13
2018-05-31T07:33:47.884Z,26.17
2018-05-31T07:36:13.827Z,26.50
2018-05-31T07:38:39.922Z,26.38
2018-05-31T07:41:05.865Z,26.58
2018-05-31T07:43:31.807Z,26.68
2018-05-31T07:45:57.703Z,26.90
2018-05-31T07:48:23.585Z,26.85
2018-05-31T07:50:50.193Z,26.85
2018-05-31T07:53:16.106Z,26.96
2018-05-31T07:55:41.983Z,27.07
2018-05-31T07:58:08.101Z,27.15
2018-05-31T08:00:33.905Z,27.39
2018-05-31T08:02:59.974Z,27.38
2018-05-31T08:05:26.311Z,27.62
2018-05-31T08:07:52.210Z,28.14
2018-05-31T08:10:18.255Z,28.19
2018-05-31T08:12:44.259Z,28.06
2018-05-31T08:15:10.284Z,28.17
2018-05-31T08:17:36.227Z,28.35
2018-05-31T08:20:02.512Z,28.31
2018-05-31T08:22:28.399Z,28.45
2018-05-31T08:24:54.934Z,28.32
2018-05-31T08:27:21.049Z,28.54
2018-05-31T08:29:46.944Z,28.90
2018-05-31T08:32:12.819Z,29.02
2018-05-31T08:34:38.744Z,29.21
2018-05-31T08:37:04.696Z,29.51
2018-05-31T08:39:30.735Z,29.24
2018-05-31T08:41:56.679Z,29.14
2018-05-31T08:44:22.572Z,29.20
2018-05-31T08:46:48.487Z,29.34
2018-05-31T08:49:14.413Z,29.59
2018-05-31T08:51:40.863Z,29.47
2018-05-31T08:54:06.752Z,29.56
2018-05-31T08:56:32.909Z,29.32
2018-05-31T08:58:58.793Z,29.48
2018-05-31T09:01:24.711Z,29.52
2018-05-31T09:03:50.795Z,30.27
2018-05-31T09:06:16.707Z,30.53
2018-05-31T09:08:42.640Z,30.27
2018-05-31T09:11:08.971Z,31.04
2018-05-31T09:13:34.889Z,30.91
2018-05-31T09:16:00.913Z,30.78
2018-05-31T09:18:26.881Z,30.56
2018-05-31T09:20:53.733Z,30.48
2018-05-31T09:23:19.629Z,30.41
2018-05-31T09:25:45.567Z,30.54
2018-05-31T09:28:12.178Z,30.36
2018-05-31T09:30:38.092Z,30.68
2018-05-31T09:33:04.045Z,31.01
2018-05-31T09:35:29.923Z,30.85
2018-05-31T09:37:55.820Z,31.09
2018-05-31T09:40:21.921Z,31.18
2018-05-31T09:42:47.825Z,31.27
2018-05-31T09:45:13.720Z,31.96
2018-05-31T09:47:39.693Z,31.90
2018-05-31T09:50:05.613Z,32.38
2018-05-31T09:52:31.680Z,32.36
2018-05-31T09:54:57.633Z,32.19
2018-05-31T09:57:23.595Z,32.27
2018-05-31T09:59:49.475Z,32.21
2018-05-31T10:02:15.438Z,32.30
2018-05-31T10:04:41.504Z,32.24
2018-05-31T10:07:07.407Z,32.39
2018-05-31T10:09:33.673Z,32.78
2018-05-31T10:12:01.057Z,32.94
2018-05-31T10:14:26.957Z,33.47
2018-05-31T10:16:53.074Z,32.88
2018-05-31T10:19:18.975Z,33.58
2018-05-31T10:21:45.869Z,33.85
2018-05-31T10:24:11.848Z,33.77
2018-05-31T10:26:37.790Z,33.34
2018-05-31T10:29:03.861Z,33.50
2018-05-31T10:31:29.801Z,33.04
2018-05-31T10:33:55.671Z,33.55
2018-05-31T10:36:21.596Z,33.09
2018-05-31T10:38:47.519Z,33.48
2018-05-31T10:41:13.579Z,34.13
2018-05-31T10:43:39.472Z,34.01
2018-05-31T10:46:05.420Z,34.55
2018-05-31T10:48:31.288Z,34.64
2018-05-31T10:50:57.171Z,35.03
2018-05-31T10:53:23.454Z,35.15
2018-05-31T10:55:49.816Z,34.89
2018-05-31T10:58:15.720Z,35.28
2018-05-31T11:00:42.621Z,34.93
2018-05-31T11:03:08.530Z,35.12
2018-05-31T11:05:34.596Z,34.76
2018-05-31T11:08:00.784Z,35.82
2018-05-31T11:10:26.678Z,35.67
2018-05-31T11:12:52.576Z,35.71
2018-05-31T11:15:18.525Z,36.27
2018-05-31T11:17:44.578Z,36.57
2018-05-31T11:20:10.471Z,35.02
2018-05-31T11:22:36.420Z,35.09
2018-05-31T11:25:02.347Z,34.88
2018-05-31T11:27:28.227Z,35.78
2018-05-31T11:29:55.105Z,36.40
2018-05-31T11:32:21.008Z,36.43
2018-05-31T11:34:46.910Z,37.24
2018-05-31T11:37:12.856Z,36.76
2018-05-31T11:39:38.759Z,37.75
2018-05-31T11:42:04.788Z,38.93
2018-05-31T11:44:30.739Z,39.42
2018-05-31T11:46:56.671Z,38.12
2018-05-31T11:49:22.563Z,39.45
2018-05-31T11:51:48.537Z,38.22
2018-05-31T11:54:14.580Z,36.52
2018-05-31T11:56:40.477Z,36.67
2018-05-31T11:59:06.411Z,35.59
2018-05-31T12:01:32.317Z,36.20
2018-05-31T12:03:58.201Z,36.30
2018-05-31T12:06:24.326Z,34.45
2018-05-31T12:08:50.198Z,34.70
2018-05-31T12:11:16.102Z,35.14
2018-05-31T12:13:42.400Z,35.57
2018-05-31T12:16:08.320Z,34.66
2018-05-31T12:18:34.352Z,34.35
2018-05-31T12:21:00.290Z,32.87
2018-05-31T12:23:26.999Z,34.17
2018-05-31T12:25:53.624Z,33.96
2018-05-31T12:28:19.535Z,33.66
2018-05-31T12:30:45.575Z,33.77
2018-05-31T12:33:11.467Z,34.29
2018-05-31T12:35:38.069Z,33.73
2018-05-31T12:38:04.780Z,33.75
2018-05-31T12:40:30.663Z,33.53
2018-05-31T12:42:56.764Z,33.10
2018-05-31T12:45:22.646Z,33.00
2018-05-31T12:47:48.559Z,33.62
2018-05-31T12:50:14.562Z,33.11
2018-05-31T12:52:40.498Z,32.82
2018-05-31T12:55:06.504Z,33.12
2018-05-31T12:57:32.448Z,33.08
2018-05-31T12:59:58.351Z,31.87
2018-05-31T13:02:24.258Z,31.55
2018-05-31T13:04:50.237Z,31.63
2018-05-31T13:07:16.271Z,31.66
2018-05-31T13:09:42.172Z,31.35
2018-05-31T13:12:08.120Z,31.39
2018-05-31T13:14:34.045Z,31.59
2018-05-31T13:16:59.943Z,31.74
2018-05-31T13:19:26.373Z,32.26
2018-05-31T13:21:52.298Z,32.61
2018-05-31T13:24:18.183Z,33.07
2018-05-31T13:26:44.184Z,32.72
2018-05-31T13:29:10.175Z,32.97
2018-05-31T13:31:36.223Z,32.15
2018-05-31T13:34:02.236Z,31.85
2018-05-31T13:36:28.145Z,31.59
2018-05-31T13:38:54.065Z,31.69
2018-05-31T13:41:20.008Z,31.49
2018-05-31T13:43:46.050Z,31.71
2018-05-31T13:46:12.735Z,31.92
2018-05-31T13:48:38.735Z,32.46
2018-05-31T13:51:04.617Z,32.41
2018-05-31T13:53:30.868Z,32.74
2018-05-31T13:55:56.930Z,32.66
2018-05-31T13:58:22.868Z,32.72
2018-05-31T14:00:48.789Z,32.73
2018-05-31T14:03:14.713Z,32.39
2018-05-31T14:05:40.621Z,32.38
2018-05-31T14:08:07.121Z,32.65
2018-05-31T14:10:33.090Z,32.88
2018-05-31T14:12:58.957Z,32.43
2018-05-31T14:15:24.832Z,32.32
2018-05-31T14:17:50.800Z,32.31
2018-05-31T14:20:16.845Z,31.98
2018-05-31T14:22:42.777Z,31.42
2018-05-31T14:25:09.016Z,31.21
2018-05-31T14:27:34.929Z,31.05
2018-05-31T14:30:00.820Z,31.12
2018-05-31T14:32:26.874Z,31.31
2018-05-31T14:34:52.773Z,31.65
2018-05-31T14:37:18.680Z,31.97
2018-05-31T14:39:44.607Z,32.24
2018-05-31T14:42:10.552Z,32.91
2018-05-31T14:44:36.585Z,33.11
2018-05-31T14:47:03.063Z,33.02
2018-05-31T14:49:28.940Z,33.01
2018-05-31T14:51:54.850Z,33.27
2018-05-31T14:54:21.127Z,33.32
2018-05-31T14:56:47.232Z,33.21
2018-05-31T14:59:13.126Z,33.42
2018-05-31T15:01:39.064Z,34.09
2018-05-31T15:04:05.071Z,34.02
2018-05-31T15:06:30.931Z,33.43
2018-05-31T15:08:57.947Z,33.51
2018-05-31T15:11:23.848Z,32.61
2018-05-31T15:13:49.954Z,32.22
2018-05-31T15:16:15.900Z,32.24
2018-05-31T15:18:41.795Z,31.90
2018-05-31T15:21:07.878Z,32.02
2018-05-31T15:23:33.801Z,31.98
2018-05-31T15:26:00.256Z,31.89
2018-05-31T15:28:26.168Z,31.83
2018-05-31T15:30:52.121Z,31.88
2018-05-31T15:33:18.144Z,31.79
2018-05-31T15:35:44.055Z,31.80
2018-05-31T15:38:09.985Z,31.93
2018-05-31T15:40:36.749Z,31.64
2018-05-31T15:43:02.661Z,31.87
2018-05-31T15:45:28.748Z,31.31
2018-05-31T15:47:54.666Z,31.23
2018-05-31T15:50:20.667Z,31.27
2018-05-31T15:52:46.598Z,31.25
2018-05-31T15:55:12.471Z,31.63
2018-05-31T15:57:38.506Z,31.98
2018-05-31T16:00:04.464Z,31.96
2018-05-31T16:02:30.346Z,32.11
2018-05-31T16:04:56.232Z,32.59
2018-05-31T16:07:22.194Z,32.66
2018-05-31T16:09:48.239Z,32.41
2018-05-31T16:12:14.160Z,31.79
2018-05-31T16:14:40.084Z,31.29
2018-05-31T16:17:05.964Z,31.06
2018-05-31T16:19:31.847Z,30.88
2018-05-31T16:21:58.351Z,30.74
2018-05-31T16:24:25.230Z,30.90
2018-05-31T16:26:51.131Z,30.78
2018-05-31T16:29:17.140Z,30.74
2018-05-31T16:31:43.041Z,30.59
2018-05-31T16:34:09.072Z,30.68
2018-05-31T16:36:34.997Z,30.60
2018-05-31T16:39:00.871Z,30.52
2018-05-31T16:41:27.806Z,30.19
2018-05-31T16:43:59.819Z,29.91
2018-05-31T16:46:25.873Z,29.96
2018-05-31T16:48:51.784Z,29.75
2018-05-31T16:51:17.741Z,29.87
2018-05-31T16:53:43.629Z,29.62
2018-05-31T16:56:09.534Z,29.63
2018-05-31T16:58:35.533Z,29.41
2018-05-31T17:01:01.450Z,29.27
2018-05-31T17:03:27.349Z,29.19
2018-05-31T17:05:53.299Z,29.09
2018-05-31T17:08:19.289Z,29.19
2018-05-31T17:10:45.178Z,29.12
2018-05-31T17:13:11.163Z,28.98
2018-05-31T17:15:37.055Z,28.85
2018-05-31T17:18:02.968Z,28.64
2018-05-31T17:20:29.023Z,28.66
2018-05-31T17:22:54.912Z,28.57
2018-05-31T17:25:20.816Z,28.49
2018-05-31T17:27:46.750Z,28.40
2018-05-31T17:30:12.640Z,28.34
2018-05-31T17:32:38.620Z,28.10
2018-05-31T17:35:04.543Z,28.11
2018-05-31T17:37:31.200Z,28.03
2018-05-31T17:39:57.656Z,27.93
2018-05-31T17:42:23.661Z,27.81
2018-05-31T17:44:49.980Z,27.72
2018-05-31T17:47:15.877Z,27.57
2018-05-31T17:49:41.809Z,27.48
2018-05-31T17:52:07.731Z,27.37
2018-05-31T17:54:33.606Z,27.28
2018-05-31T17:56:59.648Z,27.21
2018-05-31T17:59:25.549Z,27.11
2018-05-31T18:01:51.436Z,27.04
2018-05-31T18:04:17.362Z,26.93
2018-05-31T18:06:43.260Z,26.79
2018-05-31T18:09:09.231Z,26.64
2018-05-31T18:11:35.157Z,26.53
2018-05-31T18:14:01.074Z,26.40
2018-05-31T18:16:26.953Z,26.26
2018-05-31T18:18:52.896Z,26.15
2018-05-31T18:21:18.874Z,26.01
2018-05-31T18:23:44.845Z,25.88
2018-05-31T18:26:10.915Z,25.75
2018-05-31T18:28:36.800Z,25.63
2018-05-31T18:31:03.717Z,25.52
2018-05-31T18:33:29.729Z,25.42
2018-05-31T18:35:55.615Z,25.31
2018-05-31T18:38:21.528Z,25.23
2018-05-31T18:40:47.475Z,25.14
2018-05-31T18:43:13.347Z,25.02
2018-05-31T18:45:39.331Z,24.91
2018-05-31T18:48:05.257Z,24.82
2018-05-31T18:50:31.159Z,24.73
2018-05-31T18:52:57.058Z,24.67
2018-05-31T18:55:23.008Z,24.58
2018-05-31T18:57:48.974Z,24.52
2018-05-31T19:00:15.943Z,24.47
2018-05-31T19:02:41.855Z,24.43
2018-05-31T19:05:08.287Z,24.38
2018-05-31T19:07:34.190Z,24.34
2018-05-31T19:10:00.602Z,24.30
2018-05-31T19:12:32.639Z,24.27
2018-05-31T19:14:59.411Z,24.25
2018-05-31T19:17:25.405Z,24.23
2018-05-31T19:19:54.308Z,24.20
2018-05-31T19:22:21.265Z,24.18
2018-05-31T19:24:53.204Z,24.14
2018-05-31T19:27:19.084Z,24.14
2018-05-31T19:29:44.981Z,24.11
2018-05-31T19:32:11.283Z,24.06
2018-05-31T19:34:37.231Z,24.05
2018-05-31T19:37:09.299Z,24.03
2018-05-31T19:39:35.211Z,24.01
2018-05-31T19:42:01.111Z,24.02
2018-05-31T19:44:33.036Z,23.96
2018-05-31T19:46:59.047Z,23.92
2018-05-31T19:49:24.960Z,23.89
2018-05-31T19:51:57.085Z,23.86
2018-05-31T19:54:23.012Z,23.84
2018-05-31T19:56:48.904Z,23.85
2018-05-31T19:59:21.660Z,23.81
2018-05-31T20:01:54.118Z,23.82
2018-05-31T20:04:19.989Z,23.81
2018-05-31T20:06:45.905Z,23.83
2018-05-31T20:09:11.848Z,23.81
2018-05-31T20:11:37.829Z,23.76
2018-05-31T20:14:03.741Z,23.69
2018-05-31T20:16:29.714Z,23.65
2018-05-31T20:18:55.618Z,23.63
2018-05-31T20:21:21.514Z,23.62
2018-05-31T20:23:47.563Z,23.61
2018-05-31T20:26:13.453Z,23.66
2018-05-31T20:28:39.408Z,23.62
2018-05-31T20:31:05.365Z,23.63
2018-05-31T20:33:31.251Z,23.61
2018-05-31T20:35:57.212Z,23.58
2018-05-31T20:38:23.126Z,23.57
2018-05-31T20:40:49.824Z,23.55
2018-05-31T20:43:15.705Z,23.63
2018-05-31T20:45:41.648Z,23.65
2018-05-31T20:48:07.607Z,23.73
2018-05-31T20:50:33.509Z,23.77
2018-05-31T20:52:59.456Z,23.87
2018-05-31T20:55:25.393Z,23.93
2018-05-31T20:57:51.288Z,23.92
2018-05-31T21:00:17.318Z,23.93
2018-05-31T21:02:43.212Z,23.90
2018-05-31T21:05:09.086Z,23.87
2018-05-31T21:07:35.101Z,23.83
2018-05-31T21:10:00.993Z,23.77
2018-05-31T21:12:26.970Z,23.70
2018-05-31T21:14:52.920Z,23.64
2018-05-31T21:17:18.791Z,23.57
2018-05-31T21:19:44.679Z,23.51
2018-05-31T21:22:10.609Z,23.42
2018-05-31T21:24:36.584Z,23.34
2018-05-31T21:27:02.543Z,23.23
2018-05-31T21:29:28.502Z,23.14
2018-05-31T21:31:54.380Z,23.06
2018-05-31T21:34:20.277Z,22.94
2018-05-31T21:36:46.285Z,22.85
2018-05-31T21:39:12.197Z,22.76
2018-05-31T21:41:38.089Z,22.66
2018-05-31T21:44:04.328Z,22.57
2018-05-31T21:46:31.469Z,22.50
2018-05-31T21:48:57.439Z,22.41
2018-05-31T21:51:23.355Z,22.34
2018-05-31T21:53:49.468Z,22.28
2018-05-31T21:56:15.336Z,22.23
2018-05-31T21:58:41.280Z,22.17
2018-05-31T22:01:08.047Z,22.11
2018-05-31T22:03:33.969Z,22.08
2018-05-31T22:06:00.812Z,22.03
2018-05-31T22:08:26.688Z,21.98
2018-05-31T22:10:52.577Z,21.90
2018-05-31T22:13:18.705Z,21.84
2018-05-31T22:15:44.676Z,21.80
2018-05-31T22:18:10.567Z,21.74
2018-05-31T22:20:36.491Z,21.69
2018-05-31T22:23:02.426Z,21.62
2018-05-31T22:25:28.418Z,21.56
2018-05-31T22:27:54.432Z,21.53
2018-05-31T22:30:20.314Z,21.49
2018-05-31T22:32:46.204Z,21.46
2018-05-31T22:35:12.125Z,21.41
2018-05-31T22:37:38.129Z,21.37
2018-05-31T22:40:04.078Z,21.34
2018-05-31T22:42:30.292Z,21.30
2018-05-31T22:44:56.198Z,21.26
2018-05-31T22:47:22.091Z,21.21
2018-05-31T22:49:48.161Z,21.14
2018-05-31T22:52:14.081Z,21.10
2018-05-31T22:54:39.968Z,21.07
2018-05-31T22:57:06.679Z,21.07
2018-05-31T22:59:32.568Z,21.03
2018-05-31T23:01:58.545Z,21.05
2018-05-31T23:04:24.745Z,21.05
2018-05-31T23:06:50.619Z,21.07
2018-05-31T23:09:16.511Z,21.05
2018-05-31T23:11:42.816Z,21.02
2018-05-31T23:14:08.786Z,20.96
2018-05-31T23:16:34.720Z,20.93
2018-05-31T23:19:00.697Z,20.90
2018-05-31T23:21:26.582Z,20.86
2018-05-31T23:23:52.473Z,20.89
2018-05-31T23:26:19.352Z,20.89
2018-05-31T23:28:45.274Z,20.88
2018-05-31T23:31:11.160Z,20.86
2018-05-31T23:33:37.086Z,20.85
2018-05-31T23:36:02.999Z,20.82
2018-05-31T23:38:28.996Z,20.79
2018-05-31T23:40:54.981Z,20.75
2018-05-31T23:43:20.861Z,20.74
2018-05-31T23:45:46.817Z,20.72
2018-05-31T23:48:12.776Z,20.65
2018-05-31T23:50:38.791Z,20.58
2018-05-31T23:53:04.763Z,20.52
2018-05-31T23:55:30.710Z,20.48
2018-05-31T23:57:56.592Z,20.45
